sensor_id;sensor_type;location;lat;lon;timestamp;temperature;humidity
30678;DHT22;73746;47.466;8.992;2023-11-19T00:01:07;9.20;99.90
30678;DHT22;73746;47.466;8.992;2023-11-19T00:03:40;9.20;99.90
30678;DHT22;73746;47.466;8.992;2023-11-19T00:06:11;9.20;99.90
30678;DHT22;73746;47.466;8.992;2023-11-19T00:11:27;9.40;99.90
30678;DHT22;73746;47.466;8.992;2023-11-19T00:13:58;9.40;99.90
30678;DHT22;73746;47.466;8.992;2023-11-19T00:16:30;9.40;99.90
30678;DHT22;73746;47.466;8.992;2023-11-19T00:19:03;9.40;99.90
30678;DHT22;73746;47.466;8.992;2023-11-19T00:21:36;9.50;99.90
30678;DHT22;73746;47.466;8.992;2023-11-19T00:24:08;9.50;99.90
30678;DHT22;73746;47.466;8.992;2023-11-19T00:26:42;9.50;99.90
30678;DHT22;73746;47.466;8.992;2023-11-19T00:29:14;9.60;99.90
30678;DHT22;73746;47.466;8.992;2023-11-19T00:31:46;9.60;99.90
30678;DHT22;73746;47.466;8.992;2023-11-19T00:34:18;9.70;99.90
30678;DHT22;73746;47.466;8.992;2023-11-19T00:36:53;9.70;99.90
30678;DHT22;73746;47.466;8.992;2023-11-19T00:39:26;9.70;99.90
30678;DHT22;73746;47.466;8.992;2023-11-19T00:41:58;9.80;99.90
30678;DHT22;73746;47.466;8.992;2023-11-19T00:44:32;9.80;99.90
30678;DHT22;73746;47.466;8.992;2023-11-19T00:47:04;9.80;99.90
30678;DHT22;73746;47.466;8.992;2023-11-19T00:49:36;9.80;99.90
30678;DHT22;73746;47.466;8.992;2023-11-19T00:52:08;9.80;99.90
30678;DHT22;73746;47.466;8.992;2023-11-19T00:54:40;9.80;99.90
30678;DHT22;73746;47.466;8.992;2023-11-19T00:57:12;9.90;99.90
30678;DHT22;73746;47.466;8.992;2023-11-19T00:59:44;9.90;99.90
30678;DHT22;73746;47.466;8.992;2023-11-19T01:02:17;10.00;99.90
30678;DHT22;73746;47.466;8.992;2023-11-19T01:04:50;10.00;99.90
30678;DHT22;73746;47.466;8.992;2023-11-19T01:07:23;10.10;99.90
30678;DHT22;73746;47.466;8.992;2023-11-19T01:09:56;10.30;99.90
30678;DHT22;73746;47.466;8.992;2023-11-19T01:12:28;10.20;99.90
30678;DHT22;73746;47.466;8.992;2023-11-19T01:15:02;10.30;99.90
30678;DHT22;73746;47.466;8.992;2023-11-19T01:17:34;10.30;99.90
30678;DHT22;73746;47.466;8.992;2023-11-19T01:20:07;10.40;99.90
30678;DHT22;73746;47.466;8.992;2023-11-19T01:22:42;10.40;99.90
30678;DHT22;73746;47.466;8.992;2023-11-19T01:25:14;10.40;99.90
30678;DHT22;73746;47.466;8.992;2023-11-19T01:27:46;10.50;99.90
30678;DHT22;73746;47.466;8.992;2023-11-19T01:30:18;10.50;99.90
30678;DHT22;73746;47.466;8.992;2023-11-19T01:32:50;10.50;99.90
30678;DHT22;73746;47.466;8.992;2023-11-19T01:35:22;10.60;99.90
30678;DHT22;73746;47.466;8.992;2023-11-19T01:37:56;10.50;99.90
30678;DHT22;73746;47.466;8.992;2023-11-19T01:40:27;10.60;99.90
30678;DHT22;73746;47.466;8.992;2023-11-19T01:42:59;10.70;99.90
30678;DHT22;73746;47.466;8.992;2023-11-19T01:45:32;10.80;99.90
30678;DHT22;73746;47.466;8.992;2023-11-19T01:48:06;10.90;99.90
30678;DHT22;73746;47.466;8.992;2023-11-19T01:50:58;10.80;99.90
30678;DHT22;73746;47.466;8.992;2023-11-19T01:53:32;10.80;99.90
30678;DHT22;73746;47.466;8.992;2023-11-19T01:56:07;11.00;99.90
30678;DHT22;73746;47.466;8.992;2023-11-19T01:58:41;11.00;99.90
30678;DHT22;73746;47.466;8.992;2023-11-19T02:01:14;11.10;99.90
30678;DHT22;73746;47.466;8.992;2023-11-19T02:03:46;11.10;99.90
30678;DHT22;73746;47.466;8.992;2023-11-19T02:06:18;11.10;99.90
30678;DHT22;73746;47.466;8.992;2023-11-19T02:08:51;11.20;99.90
30678;DHT22;73746;47.466;8.992;2023-11-19T02:11:23;11.20;99.90
30678;DHT22;73746;47.466;8.992;2023-11-19T02:16:28;11.50;99.90
30678;DHT22;73746;47.466;8.992;2023-11-19T02:19:03;11.60;99.90
30678;DHT22;73746;47.466;8.992;2023-11-19T02:21:37;11.60;99.90
30678;DHT22;73746;47.466;8.992;2023-11-19T02:26:55;11.70;99.90
30678;DHT22;73746;47.466;8.992;2023-11-19T02:29:27;11.70;99.90
30678;DHT22;73746;47.466;8.992;2023-11-19T02:31:58;11.70;99.90
30678;DHT22;73746;47.466;8.992;2023-11-19T02:34:32;11.70;99.90
30678;DHT22;73746;47.466;8.992;2023-11-19T02:37:04;11.70;99.90
30678;DHT22;73746;47.466;8.992;2023-11-19T02:39:36;11.70;99.90
30678;DHT22;73746;47.466;8.992;2023-11-19T02:42:09;11.70;99.90
30678;DHT22;73746;47.466;8.992;2023-11-19T02:44:44;11.80;99.90
30678;DHT22;73746;47.466;8.992;2023-11-19T02:47:16;11.80;99.90
30678;DHT22;73746;47.466;8.992;2023-11-19T02:49:50;11.80;99.90
30678;DHT22;73746;47.466;8.992;2023-11-19T02:52:23;11.80;99.90
30678;DHT22;73746;47.466;8.992;2023-11-19T02:54:56;11.90;99.90
30678;DHT22;73746;47.466;8.992;2023-11-19T02:57:31;12.00;99.90
30678;DHT22;73746;47.466;8.992;2023-11-19T03:00:06;12.00;99.90
30678;DHT22;73746;47.466;8.992;2023-11-19T03:02:42;12.00;99.90
30678;DHT22;73746;47.466;8.992;2023-11-19T03:05:17;12.10;99.90
30678;DHT22;73746;47.466;8.992;2023-11-19T03:07:50;12.10;99.90
30678;DHT22;73746;47.466;8.992;2023-11-19T03:10:22;12.10;99.90
30678;DHT22;73746;47.466;8.992;2023-11-19T03:12:54;12.10;99.90
30678;DHT22;73746;47.466;8.992;2023-11-19T03:15:27;12.00;99.90
30678;DHT22;73746;47.466;8.992;2023-11-19T03:17:59;11.80;99.90
30678;DHT22;73746;47.466;8.992;2023-11-19T03:20:32;11.70;99.90
30678;DHT22;73746;47.466;8.992;2023-11-19T03:23:04;11.60;99.90
30678;DHT22;73746;47.466;8.992;2023-11-19T03:25:36;11.50;99.90
30678;DHT22;73746;47.466;8.992;2023-11-19T03:28:08;11.40;99.90
30678;DHT22;73746;47.466;8.992;2023-11-19T03:30:41;11.30;99.90
30678;DHT22;73746;47.466;8.992;2023-11-19T03:33:13;11.30;99.90
30678;DHT22;73746;47.466;8.992;2023-11-19T03:35:45;11.10;99.90
30678;DHT22;73746;47.466;8.992;2023-11-19T03:38:17;11.10;99.90
30678;DHT22;73746;47.466;8.992;2023-11-19T03:40:49;11.10;99.90
30678;DHT22;73746;47.466;8.992;2023-11-19T03:43:21;11.00;99.90
30678;DHT22;73746;47.466;8.992;2023-11-19T03:45:53;11.00;99.90
30678;DHT22;73746;47.466;8.992;2023-11-19T03:48:25;11.00;99.90
30678;DHT22;73746;47.466;8.992;2023-11-19T03:50:57;10.90;99.90
30678;DHT22;73746;47.466;8.992;2023-11-19T03:53:30;10.90;99.90
30678;DHT22;73746;47.466;8.992;2023-11-19T03:56:03;10.90;99.90
30678;DHT22;73746;47.466;8.992;2023-11-19T03:58:35;10.90;99.90
30678;DHT22;73746;47.466;8.992;2023-11-19T04:01:07;10.90;99.90
30678;DHT22;73746;47.466;8.992;2023-11-19T04:03:41;10.90;99.90
30678;DHT22;73746;47.466;8.992;2023-11-19T04:06:14;10.90;99.90
30678;DHT22;73746;47.466;8.992;2023-11-19T04:08:46;10.90;99.90
30678;DHT22;73746;47.466;8.992;2023-11-19T04:11:18;10.90;99.90
30678;DHT22;73746;47.466;8.992;2023-11-19T04:13:50;10.90;99.90
30678;DHT22;73746;47.466;8.992;2023-11-19T04:16:27;10.90;99.90
30678;DHT22;73746;47.466;8.992;2023-11-19T04:18:59;10.90;99.90
30678;DHT22;73746;47.466;8.992;2023-11-19T04:21:31;10.90;99.90
30678;DHT22;73746;47.466;8.992;2023-11-19T04:24:04;10.80;99.90
30678;DHT22;73746;47.466;8.992;2023-11-19T04:26:36;10.80;99.90
30678;DHT22;73746;47.466;8.992;2023-11-19T04:29:09;10.80;99.90
30678;DHT22;73746;47.466;8.992;2023-11-19T04:31:42;10.80;99.90
30678;DHT22;73746;47.466;8.992;2023-11-19T04:34:15;10.70;99.90
30678;DHT22;73746;47.466;8.992;2023-11-19T04:36:47;10.70;99.90
30678;DHT22;73746;47.466;8.992;2023-11-19T04:39:19;10.70;99.90
30678;DHT22;73746;47.466;8.992;2023-11-19T04:41:53;10.70;99.90
30678;DHT22;73746;47.466;8.992;2023-11-19T04:44:25;10.80;99.90
30678;DHT22;73746;47.466;8.992;2023-11-19T04:46:57;10.80;99.90
30678;DHT22;73746;47.466;8.992;2023-11-19T04:49:29;10.80;99.90
30678;DHT22;73746;47.466;8.992;2023-11-19T04:52:01;10.80;99.90
30678;DHT22;73746;47.466;8.992;2023-11-19T04:54:33;10.80;99.90
30678;DHT22;73746;47.466;8.992;2023-11-19T04:57:06;10.80;99.90
30678;DHT22;73746;47.466;8.992;2023-11-19T04:59:39;10.80;99.90
30678;DHT22;73746;47.466;8.992;2023-11-19T05:02:12;10.80;99.90
30678;DHT22;73746;47.466;8.992;2023-11-19T05:04:46;10.90;99.90
30678;DHT22;73746;47.466;8.992;2023-11-19T05:07:20;10.90;99.90
30678;DHT22;73746;47.466;8.992;2023-11-19T05:09:52;10.90;99.90
30678;DHT22;73746;47.466;8.992;2023-11-19T05:12:24;10.90;99.90
30678;DHT22;73746;47.466;8.992;2023-11-19T05:14:56;10.90;99.90
30678;DHT22;73746;47.466;8.992;2023-11-19T05:17:28;10.90;99.90
30678;DHT22;73746;47.466;8.992;2023-11-19T05:20:00;10.90;99.90
30678;DHT22;73746;47.466;8.992;2023-11-19T05:22:32;11.00;99.90
30678;DHT22;73746;47.466;8.992;2023-11-19T05:25:05;11.00;99.90
30678;DHT22;73746;47.466;8.992;2023-11-19T05:27:37;11.00;99.90
30678;DHT22;73746;47.466;8.992;2023-11-19T05:30:10;11.00;99.90
30678;DHT22;73746;47.466;8.992;2023-11-19T05:32:42;11.00;99.90
30678;DHT22;73746;47.466;8.992;2023-11-19T05:35:14;11.10;99.90
30678;DHT22;73746;47.466;8.992;2023-11-19T05:37:46;11.10;99.90
30678;DHT22;73746;47.466;8.992;2023-11-19T05:40:18;11.10;99.90
30678;DHT22;73746;47.466;8.992;2023-11-19T05:42:51;11.10;99.90
30678;DHT22;73746;47.466;8.992;2023-11-19T05:45:23;11.10;99.90
30678;DHT22;73746;47.466;8.992;2023-11-19T05:47:55;11.10;99.90
30678;DHT22;73746;47.466;8.992;2023-11-19T05:50:46;11.00;99.90
30678;DHT22;73746;47.466;8.992;2023-11-19T05:53:19;11.00;99.90
30678;DHT22;73746;47.466;8.992;2023-11-19T05:55:51;11.00;99.90
30678;DHT22;73746;47.466;8.992;2023-11-19T05:58:27;11.00;99.90
30678;DHT22;73746;47.466;8.992;2023-11-19T06:00:59;11.00;99.90
30678;DHT22;73746;47.466;8.992;2023-11-19T06:03:32;11.00;99.90
30678;DHT22;73746;47.466;8.992;2023-11-19T06:06:04;11.00;99.90
30678;DHT22;73746;47.466;8.992;2023-11-19T06:08:36;11.10;99.90
30678;DHT22;73746;47.466;8.992;2023-11-19T06:11:09;11.10;99.90
30678;DHT22;73746;47.466;8.992;2023-11-19T06:13:43;11.10;99.90
30678;DHT22;73746;47.466;8.992;2023-11-19T06:16:15;11.10;99.90
30678;DHT22;73746;47.466;8.992;2023-11-19T06:18:47;11.10;99.90
30678;DHT22;73746;47.466;8.992;2023-11-19T06:21:20;11.20;99.90
30678;DHT22;73746;47.466;8.992;2023-11-19T06:23:52;11.20;99.90
30678;DHT22;73746;47.466;8.992;2023-11-19T06:26:24;11.20;99.90
30678;DHT22;73746;47.466;8.992;2023-11-19T06:28:56;11.20;99.90
30678;DHT22;73746;47.466;8.992;2023-11-19T06:31:28;11.20;99.90
30678;DHT22;73746;47.466;8.992;2023-11-19T06:34:01;11.20;99.90
30678;DHT22;73746;47.466;8.992;2023-11-19T06:36:33;11.20;99.90
30678;DHT22;73746;47.466;8.992;2023-11-19T06:39:05;11.20;99.90
30678;DHT22;73746;47.466;8.992;2023-11-19T06:41:37;11.20;99.90
30678;DHT22;73746;47.466;8.992;2023-11-19T06:44:09;11.20;99.90
30678;DHT22;73746;47.466;8.992;2023-11-19T06:46:41;11.20;99.90
30678;DHT22;73746;47.466;8.992;2023-11-19T06:49:13;11.30;99.90
30678;DHT22;73746;47.466;8.992;2023-11-19T06:51:46;11.20;99.90
30678;DHT22;73746;47.466;8.992;2023-11-19T06:54:18;11.20;99.90
30678;DHT22;73746;47.466;8.992;2023-11-19T06:56:50;11.20;99.90
30678;DHT22;73746;47.466;8.992;2023-11-19T06:59:22;11.20;99.90
30678;DHT22;73746;47.466;8.992;2023-11-19T07:01:54;11.20;99.90
30678;DHT22;73746;47.466;8.992;2023-11-19T07:04:26;11.20;99.90
30678;DHT22;73746;47.466;8.992;2023-11-19T07:06:58;11.20;99.90
30678;DHT22;73746;47.466;8.992;2023-11-19T07:09:30;11.20;99.90
30678;DHT22;73746;47.466;8.992;2023-11-19T07:12:04;11.20;99.90
30678;DHT22;73746;47.466;8.992;2023-11-19T07:14:36;11.20;99.90
30678;DHT22;73746;47.466;8.992;2023-11-19T07:17:09;11.20;99.90
30678;DHT22;73746;47.466;8.992;2023-11-19T07:19:41;11.20;99.90
30678;DHT22;73746;47.466;8.992;2023-11-19T07:22:13;11.20;99.90
30678;DHT22;73746;47.466;8.992;2023-11-19T07:24:45;11.20;99.90
30678;DHT22;73746;47.466;8.992;2023-11-19T07:27:17;11.20;99.90
30678;DHT22;73746;47.466;8.992;2023-11-19T07:29:49;11.20;99.90
30678;DHT22;73746;47.466;8.992;2023-11-19T07:32:21;11.20;99.90
30678;DHT22;73746;47.466;8.992;2023-11-19T07:34:53;11.20;99.90
30678;DHT22;73746;47.466;8.992;2023-11-19T07:37:27;11.30;99.90
30678;DHT22;73746;47.466;8.992;2023-11-19T07:39:58;11.30;99.90
30678;DHT22;73746;47.466;8.992;2023-11-19T07:42:30;11.30;99.90
30678;DHT22;73746;47.466;8.992;2023-11-19T07:45:03;11.40;99.90
30678;DHT22;73746;47.466;8.992;2023-11-19T07:47:36;11.40;99.90
30678;DHT22;73746;47.466;8.992;2023-11-19T07:50:10;11.40;99.90
30678;DHT22;73746;47.466;8.992;2023-11-19T07:52:44;11.40;99.90
30678;DHT22;73746;47.466;8.992;2023-11-19T07:55:16;11.50;99.90
30678;DHT22;73746;47.466;8.992;2023-11-19T07:57:47;11.50;99.90
30678;DHT22;73746;47.466;8.992;2023-11-19T08:00:20;11.60;99.90
30678;DHT22;73746;47.466;8.992;2023-11-19T08:02:52;11.60;99.90
30678;DHT22;73746;47.466;8.992;2023-11-19T08:05:24;11.60;99.90
30678;DHT22;73746;47.466;8.992;2023-11-19T08:07:56;11.50;99.90
30678;DHT22;73746;47.466;8.992;2023-11-19T08:10:29;11.40;99.90
30678;DHT22;73746;47.466;8.992;2023-11-19T08:13:03;11.50;99.90
30678;DHT22;73746;47.466;8.992;2023-11-19T08:15:35;11.50;99.90
30678;DHT22;73746;47.466;8.992;2023-11-19T08:18:07;11.50;99.90
30678;DHT22;73746;47.466;8.992;2023-11-19T08:20:39;11.50;99.90
30678;DHT22;73746;47.466;8.992;2023-11-19T08:23:12;11.60;99.90
30678;DHT22;73746;47.466;8.992;2023-11-19T08:25:43;11.60;99.90
30678;DHT22;73746;47.466;8.992;2023-11-19T08:28:15;11.70;99.90
30678;DHT22;73746;47.466;8.992;2023-11-19T08:30:47;11.70;99.90
30678;DHT22;73746;47.466;8.992;2023-11-19T08:33:20;11.70;99.90
30678;DHT22;73746;47.466;8.992;2023-11-19T08:35:53;11.80;99.90
30678;DHT22;73746;47.466;8.992;2023-11-19T08:38:25;11.80;99.90
30678;DHT22;73746;47.466;8.992;2023-11-19T08:40:58;11.80;99.90
30678;DHT22;73746;47.466;8.992;2023-11-19T08:43:31;11.80;99.90
30678;DHT22;73746;47.466;8.992;2023-11-19T08:46:04;11.80;99.90
30678;DHT22;73746;47.466;8.992;2023-11-19T08:48:35;11.80;99.90
30678;DHT22;73746;47.466;8.992;2023-11-19T08:51:08;11.80;99.90
30678;DHT22;73746;47.466;8.992;2023-11-19T08:53:40;11.90;99.90
30678;DHT22;73746;47.466;8.992;2023-11-19T08:56:12;11.80;99.90
30678;DHT22;73746;47.466;8.992;2023-11-19T08:58:45;11.80;99.90
30678;DHT22;73746;47.466;8.992;2023-11-19T09:01:17;11.80;99.90
30678;DHT22;73746;47.466;8.992;2023-11-19T09:03:49;11.80;99.90
30678;DHT22;73746;47.466;8.992;2023-11-19T09:06:21;11.80;99.90
30678;DHT22;73746;47.466;8.992;2023-11-19T09:08:53;11.80;99.90
30678;DHT22;73746;47.466;8.992;2023-11-19T09:11:26;11.90;99.90
30678;DHT22;73746;47.466;8.992;2023-11-19T09:13:58;11.90;99.90
30678;DHT22;73746;47.466;8.992;2023-11-19T09:16:30;12.00;99.90
30678;DHT22;73746;47.466;8.992;2023-11-19T09:19:02;12.00;99.90
30678;DHT22;73746;47.466;8.992;2023-11-19T09:21:36;12.10;99.90
30678;DHT22;73746;47.466;8.992;2023-11-19T09:24:09;12.10;99.90
30678;DHT22;73746;47.466;8.992;2023-11-19T09:26:43;12.10;99.90
30678;DHT22;73746;47.466;8.992;2023-11-19T09:29:15;12.20;99.90
30678;DHT22;73746;47.466;8.992;2023-11-19T09:31:47;12.20;99.90
30678;DHT22;73746;47.466;8.992;2023-11-19T09:34:19;12.20;99.90
30678;DHT22;73746;47.466;8.992;2023-11-19T09:36:51;12.30;99.90
30678;DHT22;73746;47.466;8.992;2023-11-19T09:39:23;12.40;99.90
30678;DHT22;73746;47.466;8.992;2023-11-19T09:41:56;12.40;99.90
30678;DHT22;73746;47.466;8.992;2023-11-19T09:44:29;12.30;99.90
30678;DHT22;73746;47.466;8.992;2023-11-19T09:47:02;12.40;99.90
30678;DHT22;73746;47.466;8.992;2023-11-19T09:49:36;12.40;99.90
30678;DHT22;73746;47.466;8.992;2023-11-19T09:52:08;12.50;99.90
30678;DHT22;73746;47.466;8.992;2023-11-19T09:54:40;12.50;99.90
30678;DHT22;73746;47.466;8.992;2023-11-19T09:57:13;12.60;99.90
30678;DHT22;73746;47.466;8.992;2023-11-19T09:59:46;12.60;99.90
30678;DHT22;73746;47.466;8.992;2023-11-19T10:02:19;12.70;99.90
30678;DHT22;73746;47.466;8.992;2023-11-19T10:04:52;12.80;99.90
30678;DHT22;73746;47.466;8.992;2023-11-19T10:07:25;13.00;99.90
30678;DHT22;73746;47.466;8.992;2023-11-19T10:09:57;13.00;99.90
30678;DHT22;73746;47.466;8.992;2023-11-19T10:12:31;13.00;99.90
30678;DHT22;73746;47.466;8.992;2023-11-19T10:15:03;13.00;99.90
30678;DHT22;73746;47.466;8.992;2023-11-19T10:17:36;13.00;99.90
30678;DHT22;73746;47.466;8.992;2023-11-19T10:20:10;13.00;99.90
30678;DHT22;73746;47.466;8.992;2023-11-19T10:22:42;12.90;99.90
30678;DHT22;73746;47.466;8.992;2023-11-19T10:25:25;12.90;99.90
30678;DHT22;73746;47.466;8.992;2023-11-19T10:27:57;13.00;99.90
30678;DHT22;73746;47.466;8.992;2023-11-19T10:30:30;13.00;99.90
30678;DHT22;73746;47.466;8.992;2023-11-19T10:33:08;13.00;99.90
30678;DHT22;73746;47.466;8.992;2023-11-19T10:35:53;13.00;99.90
30678;DHT22;73746;47.466;8.992;2023-11-19T10:38:27;13.00;99.90
30678;DHT22;73746;47.466;8.992;2023-11-19T10:40:59;13.00;99.90
30678;DHT22;73746;47.466;8.992;2023-11-19T10:43:31;13.00;99.90
30678;DHT22;73746;47.466;8.992;2023-11-19T10:46:13;13.00;99.90
30678;DHT22;73746;47.466;8.992;2023-11-19T10:48:47;13.00;99.90
30678;DHT22;73746;47.466;8.992;2023-11-19T10:51:20;13.00;99.90
30678;DHT22;73746;47.466;8.992;2023-11-19T10:53:55;13.10;99.90
30678;DHT22;73746;47.466;8.992;2023-11-19T10:56:30;13.10;99.90
30678;DHT22;73746;47.466;8.992;2023-11-19T10:59:03;13.10;99.90
30678;DHT22;73746;47.466;8.992;2023-11-19T11:01:43;13.20;99.90
30678;DHT22;73746;47.466;8.992;2023-11-19T11:04:16;13.20;99.90
30678;DHT22;73746;47.466;8.992;2023-11-19T11:06:49;13.30;99.90
30678;DHT22;73746;47.466;8.992;2023-11-19T11:09:22;13.20;99.90
30678;DHT22;73746;47.466;8.992;2023-11-19T11:11:55;13.10;99.90
30678;DHT22;73746;47.466;8.992;2023-11-19T11:14:29;13.00;99.90
30678;DHT22;73746;47.466;8.992;2023-11-19T11:17:03;13.10;99.90
30678;DHT22;73746;47.466;8.992;2023-11-19T11:19:38;13.20;99.90
30678;DHT22;73746;47.466;8.992;2023-11-19T11:22:12;13.30;99.90
30678;DHT22;73746;47.466;8.992;2023-11-19T11:28:03;13.40;99.90
30678;DHT22;73746;47.466;8.992;2023-11-19T11:30:43;13.50;99.90
30678;DHT22;73746;47.466;8.992;2023-11-19T11:33:22;13.40;99.90
30678;DHT22;73746;47.466;8.992;2023-11-19T11:35:59;13.40;99.90
30678;DHT22;73746;47.466;8.992;2023-11-19T11:38:35;13.30;99.90
30678;DHT22;73746;47.466;8.992;2023-11-19T11:41:22;13.30;99.90
30678;DHT22;73746;47.466;8.992;2023-11-19T11:43:57;13.30;99.90
30678;DHT22;73746;47.466;8.992;2023-11-19T11:46:55;13.30;99.90
30678;DHT22;73746;47.466;8.992;2023-11-19T11:49:28;13.40;99.90
30678;DHT22;73746;47.466;8.992;2023-11-19T11:52:05;13.50;99.90
30678;DHT22;73746;47.466;8.992;2023-11-19T11:54:37;13.70;99.90
30678;DHT22;73746;47.466;8.992;2023-11-19T11:57:10;13.90;99.90
30678;DHT22;73746;47.466;8.992;2023-11-19T11:59:52;14.30;99.90
30678;DHT22;73746;47.466;8.992;2023-11-19T12:02:26;14.60;99.90
30678;DHT22;73746;47.466;8.992;2023-11-19T12:04:58;14.70;99.90
30678;DHT22;73746;47.466;8.992;2023-11-19T12:07:36;14.50;99.90
30678;DHT22;73746;47.466;8.992;2023-11-19T12:10:11;14.40;99.90
30678;DHT22;73746;47.466;8.992;2023-11-19T12:12:43;14.30;99.90
30678;DHT22;73746;47.466;8.992;2023-11-19T12:15:15;14.10;99.90
30678;DHT22;73746;47.466;8.992;2023-11-19T12:17:49;14.10;99.90
30678;DHT22;73746;47.466;8.992;2023-11-19T12:20:24;13.90;99.90
30678;DHT22;73746;47.466;8.992;2023-11-19T12:22:57;13.80;99.90
30678;DHT22;73746;47.466;8.992;2023-11-19T12:25:32;13.70;99.90
30678;DHT22;73746;47.466;8.992;2023-11-19T12:28:05;13.60;99.90
30678;DHT22;73746;47.466;8.992;2023-11-19T12:30:38;13.50;99.90
30678;DHT22;73746;47.466;8.992;2023-11-19T12:33:11;13.50;99.90
30678;DHT22;73746;47.466;8.992;2023-11-19T12:35:43;13.50;99.90
30678;DHT22;73746;47.466;8.992;2023-11-19T12:38:26;13.50;99.90
30678;DHT22;73746;47.466;8.992;2023-11-19T12:41:07;13.40;99.90
30678;DHT22;73746;47.466;8.992;2023-11-19T12:43:41;13.30;99.90
30678;DHT22;73746;47.466;8.992;2023-11-19T12:46:21;13.40;99.90
30678;DHT22;73746;47.466;8.992;2023-11-19T12:48:54;13.40;99.90
30678;DHT22;73746;47.466;8.992;2023-11-19T12:51:32;13.40;99.90
30678;DHT22;73746;47.466;8.992;2023-11-19T12:54:05;13.30;99.90
30678;DHT22;73746;47.466;8.992;2023-11-19T12:56:37;13.30;99.90
30678;DHT22;73746;47.466;8.992;2023-11-19T12:59:13;13.30;99.90
30678;DHT22;73746;47.466;8.992;2023-11-19T13:01:55;13.20;99.90
30678;DHT22;73746;47.466;8.992;2023-11-19T13:04:30;13.20;99.90
30678;DHT22;73746;47.466;8.992;2023-11-19T13:07:02;13.20;99.90
30678;DHT22;73746;47.466;8.992;2023-11-19T13:09:37;13.30;99.90
30678;DHT22;73746;47.466;8.992;2023-11-19T13:18:06;13.40;99.90
30678;DHT22;73746;47.466;8.992;2023-11-19T13:20:38;13.40;99.90
30678;DHT22;73746;47.466;8.992;2023-11-19T13:23:10;13.40;99.90
30678;DHT22;73746;47.466;8.992;2023-11-19T13:25:42;13.50;99.90
30678;DHT22;73746;47.466;8.992;2023-11-19T13:28:16;13.40;99.90
30678;DHT22;73746;47.466;8.992;2023-11-19T13:30:48;13.40;99.90
30678;DHT22;73746;47.466;8.992;2023-11-19T13:33:19;13.30;99.90
30678;DHT22;73746;47.466;8.992;2023-11-19T13:35:52;13.20;99.90
30678;DHT22;73746;47.466;8.992;2023-11-19T13:38:24;13.20;99.90
30678;DHT22;73746;47.466;8.992;2023-11-19T13:40:56;13.20;99.90
30678;DHT22;73746;47.466;8.992;2023-11-19T13:43:29;13.20;99.90
30678;DHT22;73746;47.466;8.992;2023-11-19T13:48:40;13.20;99.90
30678;DHT22;73746;47.466;8.992;2023-11-19T13:51:12;13.40;99.90
30678;DHT22;73746;47.466;8.992;2023-11-19T13:53:44;13.60;99.90
30678;DHT22;73746;47.466;8.992;2023-11-19T13:56:17;13.70;99.90
30678;DHT22;73746;47.466;8.992;2023-11-19T13:58:49;13.70;99.90
30678;DHT22;73746;47.466;8.992;2023-11-19T14:01:21;13.70;99.90
30678;DHT22;73746;47.466;8.992;2023-11-19T14:03:55;13.60;99.90
30678;DHT22;73746;47.466;8.992;2023-11-19T14:06:27;13.50;99.90
30678;DHT22;73746;47.466;8.992;2023-11-19T14:09:00;13.60;99.90
30678;DHT22;73746;47.466;8.992;2023-11-19T14:11:32;13.70;99.90
30678;DHT22;73746;47.466;8.992;2023-11-19T14:14:04;13.80;99.90
30678;DHT22;73746;47.466;8.992;2023-11-19T14:16:36;13.60;99.90
30678;DHT22;73746;47.466;8.992;2023-11-19T14:19:08;13.60;99.90
30678;DHT22;73746;47.466;8.992;2023-11-19T14:21:40;13.50;99.90
30678;DHT22;73746;47.466;8.992;2023-11-19T14:24:12;13.50;99.90
30678;DHT22;73746;47.466;8.992;2023-11-19T14:26:46;13.50;99.90
30678;DHT22;73746;47.466;8.992;2023-11-19T14:29:19;13.40;99.90
30678;DHT22;73746;47.466;8.992;2023-11-19T14:31:51;13.50;99.90
30678;DHT22;73746;47.466;8.992;2023-11-19T14:34:23;13.40;99.90
30678;DHT22;73746;47.466;8.992;2023-11-19T14:36:57;13.40;99.90
30678;DHT22;73746;47.466;8.992;2023-11-19T14:39:28;13.40;99.90
30678;DHT22;73746;47.466;8.992;2023-11-19T14:42:01;13.40;99.90
30678;DHT22;73746;47.466;8.992;2023-11-19T14:44:35;13.30;99.90
30678;DHT22;73746;47.466;8.992;2023-11-19T14:47:07;13.30;99.90
30678;DHT22;73746;47.466;8.992;2023-11-19T14:49:40;13.40;99.90
30678;DHT22;73746;47.466;8.992;2023-11-19T14:52:12;13.30;99.90
30678;DHT22;73746;47.466;8.992;2023-11-19T14:54:46;13.30;99.90
30678;DHT22;73746;47.466;8.992;2023-11-19T14:57:18;13.30;99.90
30678;DHT22;73746;47.466;8.992;2023-11-19T14:59:50;13.40;99.90
30678;DHT22;73746;47.466;8.992;2023-11-19T15:02:22;13.40;99.90
30678;DHT22;73746;47.466;8.992;2023-11-19T15:04:54;13.40;99.90
30678;DHT22;73746;47.466;8.992;2023-11-19T15:07:26;13.40;99.90
30678;DHT22;73746;47.466;8.992;2023-11-19T15:09:58;13.40;99.90
30678;DHT22;73746;47.466;8.992;2023-11-19T15:12:31;13.40;99.90
30678;DHT22;73746;47.466;8.992;2023-11-19T15:15:04;13.40;99.90
30678;DHT22;73746;47.466;8.992;2023-11-19T15:17:36;13.30;99.90
30678;DHT22;73746;47.466;8.992;2023-11-19T15:20:10;13.30;99.90
30678;DHT22;73746;47.466;8.992;2023-11-19T15:22:43;13.30;99.90
30678;DHT22;73746;47.466;8.992;2023-11-19T15:25:15;13.20;99.90
30678;DHT22;73746;47.466;8.992;2023-11-19T15:27:47;13.30;99.90
30678;DHT22;73746;47.466;8.992;2023-11-19T15:30:38;13.30;99.90
30678;DHT22;73746;47.466;8.992;2023-11-19T15:33:10;13.20;99.90
30678;DHT22;73746;47.466;8.992;2023-11-19T15:35:43;13.20;99.90
30678;DHT22;73746;47.466;8.992;2023-11-19T15:38:15;13.30;99.90
30678;DHT22;73746;47.466;8.992;2023-11-19T15:40:46;13.20;99.90
30678;DHT22;73746;47.466;8.992;2023-11-19T15:43:18;13.20;99.90
30678;DHT22;73746;47.466;8.992;2023-11-19T15:45:50;13.20;99.90
30678;DHT22;73746;47.466;8.992;2023-11-19T15:48:23;13.20;99.90
30678;DHT22;73746;47.466;8.992;2023-11-19T15:50:55;13.20;99.90
30678;DHT22;73746;47.466;8.992;2023-11-19T15:53:27;13.10;99.90
30678;DHT22;73746;47.466;8.992;2023-11-19T15:55:59;13.10;99.90
30678;DHT22;73746;47.466;8.992;2023-11-19T15:58:32;13.10;99.90
30678;DHT22;73746;47.466;8.992;2023-11-19T16:01:06;13.10;99.90
30678;DHT22;73746;47.466;8.992;2023-11-19T16:03:39;13.10;99.90
30678;DHT22;73746;47.466;8.992;2023-11-19T16:06:14;13.10;99.90
30678;DHT22;73746;47.466;8.992;2023-11-19T16:08:46;13.10;99.90
30678;DHT22;73746;47.466;8.992;2023-11-19T16:11:20;13.10;99.90
30678;DHT22;73746;47.466;8.992;2023-11-19T16:13:52;13.10;99.90
30678;DHT22;73746;47.466;8.992;2023-11-19T16:16:24;13.00;99.90
30678;DHT22;73746;47.466;8.992;2023-11-19T16:18:56;13.00;99.90
30678;DHT22;73746;47.466;8.992;2023-11-19T16:21:29;13.00;99.90
30678;DHT22;73746;47.466;8.992;2023-11-19T16:24:05;13.00;99.90
30678;DHT22;73746;47.466;8.992;2023-11-19T16:26:37;13.00;99.90
30678;DHT22;73746;47.466;8.992;2023-11-19T16:29:09;13.10;99.90